Time;durP1;ratioP1;P1;durP2;ratioP2;P2;SDS_P1;SDS_P2;PMS_P1;PMS_P2;Temp;Humidity;BMP_temperature;BMP_pressure;BME280_temperature;BME280_humidity;BME280_pressure;Samples;Min_cycle;Max_cycle;Signal;HPM_P1;HPM_P2
2022/09/07 05:21:53;;;;;;;;;;;;;;;22.53;66.60;96862.34;4243723;27;10476;-68
2022/09/07 05:23:57;;;;;;;;;;;;;;;22.82;66.19;96867.22;4231964;27;6184;-68
2022/09/07 05:26:00;;;;;;;;;;;;;;;23.05;65.77;96869.41;4246989;27;5658;-69
2022/09/07 05:28:03;;;;;;;;;;;;;;;23.19;65.23;96875.84;4247150;27;5814;-69
2022/09/07 05:30:07;;;;;;;;;;;;;;;23.31;65.13;96877.44;4238328;27;5657;-69
2022/09/07 05:32:10;;;;;;;;;;;;;;;23.41;64.83;96877.44;4242031;27;5904;-69
2022/09/07 05:34:13;;;;;;;;;;;;;;;23.47;64.59;96889.84;4231499;28;7702;-69
2022/09/07 05:36:33;;;;;;;;;;;;;;;23.54;64.34;96879.56;4239855;27;5657;-69
2022/09/07 05:38:37;;;;;;;;;;;;;;;23.57;64.03;96881.72;4234032;27;5694;-68
2022/09/07 05:40:40;;;;;;;;;;;;;;;23.61;64.20;96885.53;4230956;28;5688;-68
2022/09/07 05:42:43;;;;;;;;;;;;;;;23.64;63.48;96881.47;4230762;28;5655;-68
2022/09/07 05:44:46;;;;;;;;;;;;;;;23.67;64.02;96884.44;4231412;27;5057;-68
2022/09/07 05:46:49;;;;;;;;;;;;;;;23.71;63.97;96879.28;4236775;27;5821;-68
2022/09/07 05:48:51;;;;;;;;;;;;;;;23.78;63.95;96875.22;4229632;28;5695;-69
2022/09/07 05:50:54;;;;;;;;;;;;;;;23.83;63.80;96881.69;4231109;28;5796;-68
2022/09/07 05:52:58;;;;;;;;;;;;;;;23.88;63.51;96885.16;4231160;27;5770;-68
2022/09/07 05:55:03;;;;;;;;;;;;;;;23.92;63.37;96883.53;4239398;27;5774;-68
2022/09/07 05:57:26;;;;;;;;;;;;;;;23.95;63.27;96880.28;4247650;27;5638;-68
2022/09/07 05:59:28;;;;;;;;;;;;;;;23.96;62.91;96873.00;4247583;27;5734;-68
2022/09/07 06:01:31;;;;;;;;;;;;;;;24.01;63.27;96872.94;4247807;27;5650;-68
2022/09/07 06:03:35;;;;;;;;;;;;;;;24.04;63.03;96877.81;4231220;27;5670;-68
2022/09/07 06:05:38;;;;;;;;;;;;;;;24.07;62.72;96877.25;4230792;28;6448;-68
2022/09/07 06:07:41;;;;;;;;;;;;;;;24.06;62.77;96883.75;4230669;28;5806;-69
2022/09/07 06:09:44;;;;;;;;;;;;;;;24.08;62.86;96895.06;4230334;28;5663;-68
2022/09/07 06:12:08;;;;;;;;;;;;;;;24.07;62.92;96890.75;4230164;28;5719;-68
2022/09/07 06:14:11;;;;;;;;;;;;;;;24.10;62.35;96898.31;4240198;27;5773;-68
2022/09/07 06:16:15;;;;;;;;;;;;;;;24.11;62.72;96889.09;4238120;27;5654;-68
2022/09/07 06:18:18;;;;;;;;;;;;;;;24.09;62.52;96885.88;4244422;27;7241;-68
2022/09/07 06:20:21;;;;;;;;;;;;;;;24.08;62.11;96885.06;4239768;27;5657;-68
2022/09/07 06:22:24;;;;;;;;;;;;;;;24.09;62.18;96883.19;4226072;27;5142;-68
2022/09/07 06:24:32;;;;;;;;;;;;;;;24.08;62.00;96885.06;4228588;28;5760;-68
2022/09/07 06:26:35;;;;;;;;;;;;;;;24.10;61.81;96888.31;4230650;28;5664;-68
2022/09/07 06:28:41;;;;;;;;;;;;;;;24.12;62.05;96888.03;4230115;28;5848;-68
2022/09/07 06:30:44;;;;;;;;;;;;;;;24.14;62.03;96879.66;4228043;28;5718;-68
2022/09/07 06:32:47;;;;;;;;;;;;;;;24.19;61.76;96885.03;4230143;27;5874;-68
2022/09/07 06:34:50;;;;;;;;;;;;;;;24.20;61.62;96887.44;4228278;28;5646;-68
2022/09/07 06:36:53;;;;;;;;;;;;;;;24.24;61.58;96893.94;4232620;28;5817;-68
2022/09/07 06:39:00;;;;;;;;;;;;;;;24.25;61.40;96894.75;4228389;28;6519;-68
2022/09/07 06:41:04;;;;;;;;;;;;;;;24.25;60.93;96898.25;4228978;27;6312;-69
2022/09/07 06:43:27;;;;;;;;;;;;;;;24.28;61.14;96897.69;4232051;28;5736;-69
2022/09/07 06:45:35;;;;;;;;;;;;;;;24.31;60.84;96899.03;4231308;27;5633;-77
2022/09/07 06:47:38;;;;;;;;;;;;;;;24.33;60.63;96894.97;4234427;27;6001;-80
2022/09/07 06:49:41;;;;;;;;;;;;;;;24.34;60.47;96898.47;4230117;28;5653;-79
2022/09/07 06:51:44;;;;;;;;;;;;;;;24.33;60.49;96892.28;4233573;28;5673;-80
2022/09/07 06:53:48;;;;;;;;;;;;;;;24.34;60.80;96893.09;4221805;28;5109;-80
2022/09/07 06:55:52;;;;;;;;;;;;;;;24.34;60.58;96890.38;4229799;28;5646;-80
2022/09/07 06:57:55;;;;;;;;;;;;;;;24.35;60.31;96886.59;4232031;28;6701;-80
2022/09/07 06:59:58;;;;;;;;;;;;;;;24.36;60.44;96893.63;4226901;28;5729;-79
2022/09/07 07:02:03;;;;;;;;;;;;;;;24.37;60.47;96887.94;4224975;28;7824;-79
2022/09/07 07:04:07;;;;;;;;;;;;;;;24.39;60.15;96885.78;4233206;28;6127;-79
2022/09/07 07:06:11;;;;;;;;;;;;;;;24.43;60.26;96880.59;4232282;28;5658;-80
2022/09/07 07:08:14;;;;;;;;;;;;;;;24.44;60.00;96878.72;4227155;28;5118;-79
2022/09/07 07:10:18;;;;;;;;;;;;;;;24.47;59.88;96880.88;4224343;28;5669;-79
2022/09/07 07:12:29;;;;;;;;;;;;;;;24.51;59.90;96888.13;4227834;28;5754;-79
2022/09/07 07:14:31;;;;;;;;;;;;;;;24.56;59.10;96889.97;4229058;28;5717;-79
2022/09/07 07:16:38;;;;;;;;;;;;;;;24.61;58.96;96884.56;4227849;28;5670;-70
2022/09/07 07:18:44;;;;;;;;;;;;;;;24.67;58.82;96886.94;4224829;28;5789;-67
2022/09/07 07:20:47;;;;;;;;;;;;;;;24.75;59.11;96892.84;4219212;28;5742;-68
2022/09/07 07:22:50;;;;;;;;;;;;;;;24.81;58.47;96892.53;4228100;28;6425;-68
2022/09/07 07:24:54;;;;;;;;;;;;;;;24.83;58.60;96884.13;4223980;28;5667;-68
2022/09/07 07:26:58;;;;;;;;;;;;;;;24.86;58.39;96887.06;4218770;28;5861;-70
2022/09/07 07:29:01;;;;;;;;;;;;;;;24.87;58.26;96888.69;4218903;28;5679;-68
2022/09/07 07:31:06;;;;;;;;;;;;;;;24.90;58.31;96879.19;4218360;28;5924;-68
2022/09/07 07:33:14;;;;;;;;;;;;;;;24.89;58.31;96883.78;4217558;28;5675;-68
2022/09/07 07:35:19;;;;;;;;;;;;;;;24.91;58.52;96883.50;4217877;28;5758;-69
2022/09/07 07:37:22;;;;;;;;;;;;;;;24.96;58.11;96883.47;4230576;28;5685;-69
2022/09/07 07:39:29;;;;;;;;;;;;;;;25.02;58.02;96881.56;4235027;28;5646;-71
2022/09/07 07:41:53;;;;;;;;;;;;;;;25.06;57.78;96888.03;4234283;28;6353;-70
2022/09/07 07:44:02;;;;;;;;;;;;;;;25.09;57.83;96876.66;4233895;28;5818;-72
2022/09/07 07:46:07;;;;;;;;;;;;;;;25.12;58.08;96876.88;4234601;28;5654;-71
2022/09/07 07:48:11;;;;;;;;;;;;;;;25.16;57.74;96877.13;4235064;28;5672;-70
2022/09/07 07:50:15;;;;;;;;;;;;;;;25.18;57.81;96881.16;4234754;28;5657;-70
2022/09/07 07:52:38;;;;;;;;;;;;;;;25.22;57.66;96876.78;4235005;28;5645;-70
2022/09/07 07:55:01;;;;;;;;;;;;;;;25.24;57.39;96873.78;4234711;28;5713;-70
2022/09/07 07:57:24;;;;;;;;;;;;;;;25.28;57.54;96866.75;4234210;28;5643;-69
2022/09/07 07:59:28;;;;;;;;;;;;;;;25.29;57.66;96860.22;4235360;27;5741;-70
2022/09/07 08:01:31;;;;;;;;;;;;;;;25.31;57.38;96860.75;4226492;27;5730;-70
2022/09/07 08:03:39;;;;;;;;;;;;;;;25.31;57.35;96849.94;4217822;28;6217;-69
2022/09/07 08:05:42;;;;;;;;;;;;;;;25.28;57.40;96850.50;4217577;28;5659;-68
2022/09/07 08:07:46;;;;;;;;;;;;;;;25.30;57.33;96856.44;4217808;28;5682;-68
2022/09/07 08:09:51;;;;;;;;;;;;;;;25.30;56.89;96858.34;4217564;28;5675;-68
2022/09/07 08:11:56;;;;;;;;;;;;;;;25.31;56.68;96859.94;4217707;28;5686;-69
2022/09/07 08:14:01;;;;;;;;;;;;;;;25.28;56.92;96850.50;4217633;28;5676;-67
2022/09/07 08:16:05;;;;;;;;;;;;;;;25.25;56.56;96848.34;4217668;28;5751;-68
2022/09/07 08:18:08;;;;;;;;;;;;;;;25.30;56.46;96850.22;4218011;28;5676;-69
2022/09/07 08:20:11;;;;;;;;;;;;;;;25.30;56.36;96844.81;4227420;28;5901;-68
2022/09/07 08:22:15;;;;;;;;;;;;;;;25.28;56.44;96839.69;4221174;28;5638;-68
2022/09/07 08:24:19;;;;;;;;;;;;;;;25.27;56.07;96845.38;4234103;28;5729;-68
2022/09/07 08:26:24;;;;;;;;;;;;;;;25.24;56.20;96835.91;4233807;28;5654;-71
2022/09/07 08:28:28;;;;;;;;;;;;;;;25.24;56.19;96835.91;4227561;28;5769;-73
2022/09/07 08:30:31;;;;;;;;;;;;;;;25.25;56.15;96840.22;4221363;27;5709;-70
2022/09/07 08:32:37;;;;;;;;;;;;;;;25.27;56.14;96842.69;4229888;28;6458;-73
2022/09/07 08:34:40;;;;;;;;;;;;;;;25.31;56.18;96841.00;4230964;28;5729;-70
2022/09/07 08:36:42;;;;;;;;;;;;;;;25.32;56.13;96848.81;4233708;28;5673;-68
2022/09/07 08:38:47;;;;;;;;;;;;;;;25.32;55.90;96832.59;4219340;28;5660;-73
2022/09/07 08:40:53;;;;;;;;;;;;;;;25.31;55.75;96839.09;4221025;28;5908;-69
2022/09/07 08:43:06;;;;;;;;;;;;;;;25.33;55.94;96836.91;4222448;28;5733;-71
2022/09/07 08:45:14;;;;;;;;;;;;;;;25.35;55.94;96837.44;4220863;28;5683;-71
2022/09/07 08:47:28;;;;;;;;;;;;;;;25.36;55.58;96832.81;4227418;27;5135;-71
2022/09/07 08:49:43;;;;;;;;;;;;;;;25.37;55.50;96829.03;4217474;28;5774;-70
2022/09/07 08:51:53;;;;;;;;;;;;;;;25.36;55.81;96836.34;4221622;28;5649;-74
2022/09/07 08:53:56;;;;;;;;;;;;;;;25.37;55.73;96837.97;4222913;28;5775;-74
2022/09/07 08:56:05;;;;;;;;;;;;;;;25.37;55.65;96846.09;4217694;28;5752;-73
2022/09/07 08:58:12;;;;;;;;;;;;;;;25.40;55.31;96839.28;4216769;28;5770;-71
2022/09/07 09:00:39;;;;;;;;;;;;;;;25.42;55.50;96832.50;4217184;28;5686;-72
2022/09/07 09:02:42;;;;;;;;;;;;;;;25.41;55.10;96839.00;4225849;27;5735;-76
2022/09/07 09:04:46;;;;;;;;;;;;;;;25.45;55.06;96834.63;4227823;28;5766;-71
2022/09/07 09:07:19;;;;;;;;;;;;;;;25.55;54.87;96831.00;4222666;28;5667;-73
2022/09/07 09:09:33;;;;;;;;;;;;;;;25.60;55.04;96832.84;4220830;28;7249;-71
2022/09/07 09:11:49;;;;;;;;;;;;;;;25.67;54.72;96836.00;4225171;28;5716;-73
2022/09/07 09:14:00;;;;;;;;;;;;;;;25.70;54.59;96828.13;4219476;28;5667;-74
2022/09/07 09:16:10;;;;;;;;;;;;;;;25.68;54.78;96824.06;4223117;28;5679;-76
2022/09/07 09:18:27;;;;;;;;;;;;;;;25.73;54.66;96824.06;4217212;28;5687;-74
2022/09/07 09:20:36;;;;;;;;;;;;;;;25.79;54.50;96825.59;4222162;28;5716;-76
2022/09/07 09:22:39;;;;;;;;;;;;;;;25.83;54.55;96821.22;4228701;27;5649;-75
2022/09/07 09:24:46;;;;;;;;;;;;;;;25.85;54.46;96813.63;4225709;27;5856;-74
2022/09/07 09:26:56;;;;;;;;;;;;;;;25.86;54.65;96815.22;4222795;28;5695;-77
2022/09/07 09:29:12;;;;;;;;;;;;;;;25.88;54.36;96810.31;4217201;28;5796;-75
2022/09/07 09:31:20;;;;;;;;;;;;;;;25.90;54.17;96808.13;4223732;28;5653;-76
2022/09/07 09:33:27;;;;;;;;;;;;;;;25.90;54.32;96813.53;4225688;28;6648;-75
2022/09/07 09:35:34;;;;;;;;;;;;;;;25.94;54.15;96813.78;4230850;28;5669;-72
2022/09/07 09:37:38;;;;;;;;;;;;;;;25.94;54.30;96811.06;4221793;28;5658;-72
2022/09/07 09:39:43;;;;;;;;;;;;;;;25.95;54.35;96812.69;4216640;28;5711;-74
2022/09/07 09:41:55;;;;;;;;;;;;;;;25.94;53.99;96811.88;4222139;28;5675;-74
2022/09/07 09:43:58;;;;;;;;;;;;;;;25.94;54.04;96803.75;4221033;28;5776;-73
2022/09/07 09:46:01;;;;;;;;;;;;;;;25.95;53.80;96799.94;4218526;28;5674;-74
2022/09/07 09:48:26;;;;;;;;;;;;;;;25.96;53.80;96795.34;4216215;28;5667;-74
2022/09/07 09:50:34;;;;;;;;;;;;;;;25.99;53.92;96795.56;4219514;28;6548;-75
2022/09/07 09:53:00;;;;;;;;;;;;;;;26.01;53.86;96789.84;4217368;28;5766;-74
2022/09/07 09:55:06;;;;;;;;;;;;;;;26.03;53.49;96783.03;4218342;28;6340;-75
2022/09/07 09:57:52;;;;;;;;;;;;;;;26.05;53.68;96786.28;4220419;28;5691;-73
2022/09/07 10:00:17;;;;;;;;;;;;;;;26.06;53.61;96778.94;4225345;28;5833;-73
2022/09/07 10:02:33;;;;;;;;;;;;;;;26.07;53.58;96769.72;4225228;28;5887;-76
2022/09/07 10:04:57;;;;;;;;;;;;;;;26.06;53.24;96771.63;4227746;28;5653;-74
2022/09/07 10:07:07;;;;;;;;;;;;;;;26.04;53.35;96762.97;4226198;28;5672;-72
2022/09/07 10:09:18;;;;;;;;;;;;;;;26.09;53.18;96770.22;4220283;28;5761;-74
2022/09/07 10:11:41;;;;;;;;;;;;;;;26.09;53.21;96767.53;4220864;28;5667;-74
2022/09/07 10:14:05;;;;;;;;;;;;;;;26.13;53.25;96760.41;4221506;28;5828;-74
2022/09/07 10:16:10;;;;;;;;;;;;;;;26.15;53.00;96768.25;4228565;27;5756;-73
2022/09/07 10:18:21;;;;;;;;;;;;;;;26.17;52.89;96756.03;4219857;28;7153;-76
2022/09/07 10:20:32;;;;;;;;;;;;;;;26.20;52.96;96760.03;4219300;28;5869;-76
2022/09/07 10:22:37;;;;;;;;;;;;;;;26.25;52.73;96758.06;4220909;28;5230;-76
2022/09/07 10:24:40;;;;;;;;;;;;;;;26.24;52.82;96751.03;4228203;27;5866;-74
2022/09/07 10:26:43;;;;;;;;;;;;;;;26.22;52.88;96753.22;4229108;27;5687;-74
2022/09/07 10:28:46;;;;;;;;;;;;;;;26.25;52.76;96752.63;4232537;28;6532;-74
2022/09/07 10:31:18;;;;;;;;;;;;;;;26.28;52.65;96757.50;4228220;28;5657;-75
2022/09/07 10:33:27;;;;;;;;;;;;;;;26.30;52.78;96746.34;4235551;28;5694;-75
2022/09/07 10:35:34;;;;;;;;;;;;;;;26.32;52.81;96752.28;4219385;28;5789;-74
2022/09/07 10:37:49;;;;;;;;;;;;;;;26.35;52.59;96752.47;4219743;28;5688;-75
2022/09/07 10:40:03;;;;;;;;;;;;;;;26.39;52.57;96747.31;4224788;28;5698;-75
2022/09/07 10:42:24;;;;;;;;;;;;;;;26.41;52.67;96745.13;4232640;27;5658;-75
2022/09/07 10:44:46;;;;;;;;;;;;;;;26.40;52.53;96748.94;4228249;28;5651;-75
2022/09/07 10:46:56;;;;;;;;;;;;;;;26.39;52.80;96750.03;4233444;28;5645;-71
2022/09/07 10:49:12;;;;;;;;;;;;;;;26.45;52.42;96748.03;4225611;27;5675;-72
2022/09/07 10:51:21;;;;;;;;;;;;;;;26.46;52.53;96742.31;4219822;28;5691;-72
2022/09/07 10:53:35;;;;;;;;;;;;;;;26.46;52.56;96736.88;4232495;28;5761;-73
2022/09/07 10:55:58;;;;;;;;;;;;;;;26.45;52.75;96737.19;4235929;28;5821;-74
2022/09/07 10:58:13;;;;;;;;;;;;;;;26.45;52.68;96737.19;4235625;28;5649;-72
2022/09/07 11:00:17;;;;;;;;;;;;;;;26.43;52.51;96736.69;4235833;27;5650;-73
2022/09/07 11:02:30;;;;;;;;;;;;;;;26.40;52.49;96738.09;4224774;27;5688;-73
2022/09/07 11:04:52;;;;;;;;;;;;;;;26.41;52.43;96731.56;4228275;28;5669;-75
2022/09/07 11:07:04;;;;;;;;;;;;;;;26.42;52.46;96726.94;4225456;27;5722;-76
2022/09/07 11:09:28;;;;;;;;;;;;;;;26.43;52.46;96732.06;4229431;28;5753;-76
2022/09/07 11:11:37;;;;;;;;;;;;;;;26.44;52.48;96730.97;4220291;27;5769;-75
2022/09/07 11:14:07;;;;;;;;;;;;;;;26.45;52.51;96729.88;4218411;28;5659;-75
2022/09/07 11:16:18;;;;;;;;;;;;;;;26.47;52.58;96727.66;4219049;28;5925;-75
2022/09/07 11:18:52;;;;;;;;;;;;;;;26.47;52.50;96711.41;4222217;28;5736;-76
2022/09/07 11:21:18;;;;;;;;;;;;;;;26.50;52.66;96705.38;4223499;28;5743;-74
2022/09/07 11:23:44;;;;;;;;;;;;;;;26.51;52.49;96704.28;4221339;28;5657;-74
2022/09/07 11:25:57;;;;;;;;;;;;;;;26.51;52.64;96704.28;4223955;28;5860;-73
2022/09/07 11:28:04;;;;;;;;;;;;;;;26.52;52.77;96702.38;4222537;28;6300;-74
2022/09/07 11:30:18;;;;;;;;;;;;;;;26.52;53.08;96692.34;4229852;28;5888;-75
2022/09/07 11:32:25;;;;;;;;;;;;;;;26.54;53.01;96690.13;4219959;27;5662;-75
2022/09/07 11:34:33;;;;;;;;;;;;;;;26.56;53.11;96692.53;4218406;28;5754;-73
2022/09/07 11:36:40;;;;;;;;;;;;;;;26.60;53.08;96680.78;4226587;28;6424;-75
2022/09/07 11:38:50;;;;;;;;;;;;;;;26.59;52.99;96671.06;4231863;28;5954;-75
2022/09/07 11:41:06;;;;;;;;;;;;;;;26.58;52.89;96666.75;4229513;28;5670;-74
2022/09/07 11:43:18;;;;;;;;;;;;;;;26.59;53.65;96667.53;4221360;28;5691;-76
2022/09/07 11:45:28;;;;;;;;;;;;;;;26.58;53.25;96658.59;4221642;28;5706;-77
2022/09/07 11:47:38;;;;;;;;;;;;;;;26.57;53.45;96654.28;4228801;28;5684;-75
2022/09/07 11:49:42;;;;;;;;;;;;;;;26.54;53.34;96651.38;4229098;28;5654;-76
2022/09/07 11:51:56;;;;;;;;;;;;;;;26.52;53.55;96640.84;4227925;28;5768;-75
2022/09/07 11:54:04;;;;;;;;;;;;;;;26.54;53.47;96644.06;4224709;28;5093;-73
2022/09/07 11:56:18;;;;;;;;;;;;;;;26.60;53.32;96637.41;4226077;28;5097;-73
2022/09/07 11:58:49;;;;;;;;;;;;;;;26.62;53.36;96637.94;4225527;28;5740;-74
2022/09/07 12:01:01;;;;;;;;;;;;;;;26.62;53.50;96631.72;4224267;28;5670;-77
2022/09/07 12:03:31;;;;;;;;;;;;;;;26.60;53.27;96629.28;4218678;28;5675;-77
2022/09/07 12:05:59;;;;;;;;;;;;;;;26.63;53.16;96622.47;4226126;28;5853;-76
2022/09/07 12:08:33;;;;;;;;;;;;;;;26.66;53.54;96616.44;4226690;28;5666;-70
2022/09/07 12:10:57;;;;;;;;;;;;;;;26.67;53.52;96613.44;4219931;28;5827;-75
2022/09/07 12:13:14;;;;;;;;;;;;;;;26.69;53.35;96611.22;4217121;28;5667;-72
2022/09/07 12:15:27;;;;;;;;;;;;;;;26.71;53.72;96605.50;4230614;28;5736;-70
2022/09/07 12:17:45;;;;;;;;;;;;;;;26.74;53.55;96602.22;4230766;28;5653;-74
2022/09/07 12:20:10;;;;;;;;;;;;;;;26.74;53.69;96602.22;4217968;28;5758;-74
2022/09/07 12:22:21;;;;;;;;;;;;;;;26.76;53.76;96601.91;4232353;27;5642;-74
2022/09/07 12:24:47;;;;;;;;;;;;;;;26.78;53.68;96597.78;4234100;27;5690;-75
2022/09/07 12:26:51;;;;;;;;;;;;;;;26.79;53.60;96593.97;4233074;27;5717;-75
2022/09/07 12:29:06;;;;;;;;;;;;;;;26.81;53.51;96594.44;4228832;27;5792;-69
2022/09/07 12:31:13;;;;;;;;;;;;;;;26.83;53.73;96577.88;4217309;28;5671;-69
2022/09/07 12:33:32;;;;;;;;;;;;;;;26.83;53.61;96578.69;4218179;28;5773;-69
2022/09/07 12:35:38;;;;;;;;;;;;;;;26.82;53.85;96577.06;4233444;28;5654;-69
2022/09/07 12:37:43;;;;;;;;;;;;;;;26.80;53.83;96583.91;4232570;28;5748;-72
2022/09/07 12:39:46;;;;;;;;;;;;;;;26.79;54.02;96579.59;4233680;27;5788;-71
2022/09/07 12:41:52;;;;;;;;;;;;;;;26.79;54.19;96588.53;4232190;28;5753;-74
2022/09/07 12:44:22;;;;;;;;;;;;;;;26.81;54.19;96585.50;4223161;28;5814;-74
2022/09/07 12:46:48;;;;;;;;;;;;;;;26.82;54.47;96587.13;4217947;28;5695;-79
2022/09/07 12:49:03;;;;;;;;;;;;;;;26.82;54.30;96592.53;4218452;28;6879;-80
2022/09/07 12:51:14;;;;;;;;;;;;;;;26.84;54.66;96595.75;4217802;28;5711;-80
2022/09/07 12:53:32;;;;;;;;;;;;;;;26.87;54.74;96603.31;4222883;28;5737;-79
2022/09/07 12:55:52;;;;;;;;;;;;;;;26.91;54.64;96601.59;4223634;28;5822;-80
2022/09/07 12:58:27;;;;;;;;;;;;;;;26.86;54.55;96583.53;4224223;28;5854;-80
2022/09/07 13:00:38;;;;;;;;;;;;;;;26.88;54.81;96577.78;4226122;28;5691;-79
2022/09/07 13:03:10;;;;;;;;;;;;;;;26.89;54.90;96572.06;4229927;28;5775;-79
2022/09/07 13:05:51;;;;;;;;;;;;;;;26.91;55.05;96575.25;4219287;28;5672;-74
2022/09/07 13:08:20;;;;;;;;;;;;;;;26.91;54.76;96582.59;4220829;27;6390;-73
2022/09/07 13:10:29;;;;;;;;;;;;;;;26.89;55.00;96576.69;4223202;28;5673;-77
2022/09/07 13:12:37;;;;;;;;;;;;;;;26.89;54.88;96577.47;4225792;28;5642;-76
2022/09/07 13:15:00;;;;;;;;;;;;;;;26.89;54.81;96560.41;4232922;28;5653;-75
2022/09/07 13:17:41;;;;;;;;;;;;;;;26.89;54.83;96550.34;4228658;28;5879;-79
2022/09/07 13:20:05;;;;;;;;;;;;;;;26.88;55.03;96548.75;4219340;28;5707;-79
2022/09/07 13:23:07;;;;;;;;;;;;;;;26.87;55.14;96554.50;4228499;28;6435;-78
2022/09/07 13:25:44;;;;;;;;;;;;;;;26.87;55.07;96554.50;4222751;28;5679;-77
2022/09/07 13:27:54;;;;;;;;;;;;;;;26.87;55.19;96554.50;4218924;28;5777;-80
2022/09/07 13:30:01;;;;;;;;;;;;;;;26.88;55.35;96553.38;4224662;28;5732;-80
2022/09/07 13:32:10;;;;;;;;;;;;;;;26.87;55.18;96549.06;4232900;28;5700;-78
2022/09/07 13:34:48;;;;;;;;;;;;;;;26.89;55.46;96549.56;4224392;27;5706;-78
2022/09/07 13:36:51;;;;;;;;;;;;;;;26.93;55.45;96553.25;4219131;28;5715;-79
2022/09/07 13:38:55;;;;;;;;;;;;;;;26.95;55.43;96556.47;4224536;28;5790;-78
2022/09/07 13:41:06;;;;;;;;;;;;;;;26.94;55.51;96549.44;4225500;28;5782;-78
2022/09/07 13:43:16;;;;;;;;;;;;;;;26.95;55.57;96554.56;4223676;28;5807;-78
2022/09/07 13:45:32;;;;;;;;;;;;;;;26.96;55.48;96558.91;4229065;28;5825;-79
2022/09/07 13:47:48;;;;;;;;;;;;;;;26.96;55.50;96558.91;4229540;28;7672;-78
2022/09/07 13:50:01;;;;;;;;;;;;;;;26.95;55.58;96556.47;4228118;28;5679;-78
2022/09/07 13:52:13;;;;;;;;;;;;;;;26.94;55.59;96552.16;4234323;28;5657;-77
2022/09/07 13:54:23;;;;;;;;;;;;;;;26.94;55.61;96546.72;4225574;28;5657;-84
2022/09/07 13:56:37;;;;;;;;;;;;;;;26.92;55.55;96552.44;4220727;28;5846;-76
2022/09/07 13:58:43;;;;;;;;;;;;;;;26.92;55.87;96548.94;4230599;28;5828;-83
2022/09/07 14:00:54;;;;;;;;;;;;;;;26.92;55.80;96548.94;4227245;28;5687;-77
2022/09/07 14:03:01;;;;;;;;;;;;;;;26.93;55.95;96551.34;4226078;28;5908;-79
2022/09/07 14:05:06;;;;;;;;;;;;;;;26.96;55.96;96549.97;4231509;28;5634;-78
2022/09/07 14:07:14;;;;;;;;;;;;;;;26.97;56.09;96540.72;4232411;28;5650;-81
2022/09/07 14:09:20;;;;;;;;;;;;;;;26.97;55.99;96530.66;4233572;28;5729;-84
2022/09/07 14:11:25;;;;;;;;;;;;;;;26.98;56.23;96520.63;4225191;28;5848;-82
2022/09/07 14:13:28;;;;;;;;;;;;;;;26.97;56.30;96514.38;4229209;28;5654;-79
2022/09/07 14:15:38;;;;;;;;;;;;;;;26.97;55.99;96508.16;4227726;28;5836;-82
2022/09/07 14:17:40;;;;;;;;;;;;;;;26.98;56.21;96509.75;4232121;28;5804;-85
2022/09/07 14:19:45;;;;;;;;;;;;;;;26.97;56.18;96500.81;4233719;27;5768;-68
2022/09/07 14:21:59;;;;;;;;;;;;;;;26.97;56.22;96497.31;4222353;28;5792;-77
2022/09/07 14:24:05;;;;;;;;;;;;;;;26.98;56.23;96501.63;4230604;28;5643;-75
2022/09/07 14:26:14;;;;;;;;;;;;;;;26.97;56.35;96500.03;4222979;28;5784;-72
2022/09/07 14:28:30;;;;;;;;;;;;;;;26.97;56.24;96497.31;4231033;28;5789;-75
2022/09/07 14:30:35;;;;;;;;;;;;;;;26.98;56.34;96498.91;4228212;28;5654;-74
2022/09/07 14:32:38;;;;;;;;;;;;;;;26.99;56.40;96509.44;4222657;28;5818;-72
2022/09/07 14:34:42;;;;;;;;;;;;;;;27.01;56.42;96501.00;4227840;28;5657;-72
2022/09/07 14:36:46;;;;;;;;;;;;;;;27.02;56.46;96502.63;4218609;28;5793;-72
2022/09/07 14:38:49;;;;;;;;;;;;;;;27.03;56.47;96498.81;4218948;28;5683;-72
2022/09/07 14:41:12;;;;;;;;;;;;;;;27.05;56.45;96499.31;4218965;28;5806;-72
2022/09/07 14:43:31;;;;;;;;;;;;;;;27.05;56.57;96484.94;4218303;28;5786;-72
2022/09/07 14:45:36;;;;;;;;;;;;;;;27.03;56.68;96482.53;4217216;28;5667;-72
2022/09/07 14:47:42;;;;;;;;;;;;;;;27.01;56.84;96475.78;4224561;28;5666;-72
2022/09/07 14:50:04;;;;;;;;;;;;;;;27.00;56.82;96464.13;4228915;27;5669;-71
2022/09/07 14:52:07;;;;;;;;;;;;;;;26.98;56.83;96459.03;4226962;27;6625;-74
2022/09/07 14:54:19;;;;;;;;;;;;;;;26.94;56.92;96452.59;4221719;28;5674;-71
2022/09/07 14:56:24;;;;;;;;;;;;;;;26.94;57.08;96454.50;4228087;27;5654;-73
2022/09/07 14:58:30;;;;;;;;;;;;;;;26.96;57.00;96457.72;4227873;27;5665;-73
2022/09/07 15:00:36;;;;;;;;;;;;;;;26.95;57.05;96456.91;4228172;28;5774;-73
2022/09/07 15:02:38;;;;;;;;;;;;;;;26.94;57.10;96462.63;4230050;28;5813;-73
2022/09/07 15:04:41;;;;;;;;;;;;;;;26.92;57.20;96473.00;4228679;28;5650;-73
2022/09/07 15:06:45;;;;;;;;;;;;;;;26.93;57.24;96477.31;4234865;28;5627;-73
2022/09/07 15:09:05;;;;;;;;;;;;;;;26.94;57.18;96478.91;4235599;27;5740;-73
2022/09/07 15:11:11;;;;;;;;;;;;;;;26.93;57.16;96463.75;4235199;28;5650;-73
2022/09/07 15:13:35;;;;;;;;;;;;;;;26.88;57.32;96472.00;4233569;28;5638;-74
2022/09/07 15:15:45;;;;;;;;;;;;;;;26.85;57.38;96488.91;4233099;28;5903;-73
2022/09/07 15:17:48;;;;;;;;;;;;;;;26.83;57.35;96500.03;4230825;27;5806;-73
2022/09/07 15:19:51;;;;;;;;;;;;;;;26.82;57.55;96494.91;4226353;28;5681;-73
2022/09/07 15:21:54;;;;;;;;;;;;;;;26.79;57.32;96492.81;4229457;28;5647;-73
2022/09/07 15:23:59;;;;;;;;;;;;;;;26.77;57.28;96476.06;4223525;28;5920;-73
2022/09/07 15:26:02;;;;;;;;;;;;;;;26.74;57.42;96474.75;4225173;27;5732;-73
2022/09/07 15:28:05;;;;;;;;;;;;;;;26.72;57.40;96482.38;4231623;28;5131;-81
2022/09/07 15:30:11;;;;;;;;;;;;;;;26.70;57.63;96485.38;4226154;28;5760;-80
2022/09/07 15:32:16;;;;;;;;;;;;;;;26.68;57.39;96487.59;4230466;28;5748;-81
2022/09/07 15:34:20;;;;;;;;;;;;;;;26.68;57.52;96500.38;4227380;28;5744;-80
2022/09/07 15:36:23;;;;;;;;;;;;;;;26.68;57.31;96500.38;4244604;27;7680;-81
2022/09/07 15:38:26;;;;;;;;;;;;;;;26.67;57.64;96499.56;4219646;28;5750;-80
2022/09/07 15:40:53;;;;;;;;;;;;;;;26.66;57.57;96492.53;4232881;28;5790;-81
2022/09/07 15:43:15;;;;;;;;;;;;;;;26.65;57.56;96485.50;4224208;28;5777;-81
2022/09/07 15:45:24;;;;;;;;;;;;;;;26.65;57.71;96479.28;4220617;28;5675;-81
2022/09/07 15:47:28;;;;;;;;;;;;;;;26.64;57.78;96488.53;4229216;28;5721;-80
2022/09/07 15:49:51;;;;;;;;;;;;;;;26.61;57.79;96486.41;4217391;28;5831;-80
2022/09/07 15:51:56;;;;;;;;;;;;;;;26.59;57.60;96492.13;4217745;28;5782;-81
2022/09/07 15:54:07;;;;;;;;;;;;;;;26.56;57.80;96492.75;4216692;28;5738;-80
2022/09/07 15:56:15;;;;;;;;;;;;;;;26.53;57.94;96493.34;4217111;28;5692;-78
2022/09/07 15:58:21;;;;;;;;;;;;;;;26.50;57.94;96493.94;4216827;28;5675;-80
2022/09/07 16:00:24;;;;;;;;;;;;;;;26.50;57.95;96504.78;4220869;28;5682;-79
2022/09/07 16:02:28;;;;;;;;;;;;;;;26.49;57.94;96503.19;4220873;28;6475;-80
2022/09/07 16:04:51;;;;;;;;;;;;;;;26.49;57.98;96508.59;4217013;28;5667;-80
2022/09/07 16:06:54;;;;;;;;;;;;;;;26.50;58.14;96496.66;4217040;28;5666;-80
2022/09/07 16:08:57;;;;;;;;;;;;;;;26.52;58.12;96496.38;4223050;28;5725;-80
2022/09/07 16:11:11;;;;;;;;;;;;;;;26.50;57.97;96491.22;4232923;27;5848;-80
2022/09/07 16:13:22;;;;;;;;;;;;;;;26.49;58.30;96492.34;4231566;28;5749;-80
2022/09/07 16:15:25;;;;;;;;;;;;;;;26.47;58.31;96494.56;4229414;28;5657;-81
2022/09/07 16:17:30;;;;;;;;;;;;;;;26.47;58.15;96482.91;4217066;27;5981;-84
2022/09/07 16:19:39;;;;;;;;;;;;;;;26.47;58.35;96475.56;4217395;28;5801;-80
2022/09/07 16:21:43;;;;;;;;;;;;;;;26.48;58.28;96481.81;4219791;28;6371;-80
2022/09/07 16:23:48;;;;;;;;;;;;;;;26.49;58.21;96480.69;4216896;28;5695;-80
2022/09/07 16:25:56;;;;;;;;;;;;;;;26.49;58.25;96492.34;4217086;28;5675;-81
2022/09/07 16:27:58;;;;;;;;;;;;;;;26.47;58.02;96486.41;4216705;28;5659;-81
2022/09/07 16:30:01;;;;;;;;;;;;;;;26.48;58.28;96485.31;4220077;28;5683;-80
2022/09/07 16:32:04;;;;;;;;;;;;;;;26.49;58.19;96484.22;4228968;27;5763;-80
2022/09/07 16:34:28;;;;;;;;;;;;;;;26.48;58.15;96474.47;4216538;28;6229;-81
2022/09/07 16:36:31;;;;;;;;;;;;;;;26.47;58.27;96472.88;4219618;28;6028;-80
2022/09/07 16:38:35;;;;;;;;;;;;;;;26.47;58.07;96472.06;4220716;27;7707;-80
2022/09/07 16:40:46;;;;;;;;;;;;;;;26.46;57.78;96482.09;4232538;28;5654;-80
2022/09/07 16:42:50;;;;;;;;;;;;;;;26.45;58.13;96477.78;4223615;27;5663;-80
2022/09/07 16:44:54;;;;;;;;;;;;;;;26.45;58.08;96475.09;4231052;28;5665;-80
2022/09/07 16:47:17;;;;;;;;;;;;;;;26.46;58.10;96467.75;4224959;27;5911;-80
2022/09/07 16:49:19;;;;;;;;;;;;;;;26.42;57.92;96470.28;4217547;28;5735;-80